sensor_id;sensor_type;location;lat;lon;timestamp;P1;durP1;ratioP1;P2;durP2;ratioP2
70026;SDS011;57506;50.092;15.804;2022-08-01T00:00:19;15.83;;;11.37;;
70026;SDS011;57506;50.092;15.804;2022-08-01T00:02:45;15.57;;;11.55;;
70026;SDS011;57506;50.092;15.804;2022-08-01T00:05:10;12.93;;;11.10;;
70026;SDS011;57506;50.092;15.804;2022-08-01T00:07:37;12.15;;;9.88;;
70026;SDS011;57506;50.092;15.804;2022-08-01T00:10:03;12.53;;;10.30;;
70026;SDS011;57506;50.092;15.804;2022-08-01T00:12:30;11.20;;;9.68;;
70026;SDS011;57506;50.092;15.804;2022-08-01T00:14:56;11.73;;;9.38;;
70026;SDS011;57506;50.092;15.804;2022-08-01T00:17:21;13.00;;;10.23;;
70026;SDS011;57506;50.092;15.804;2022-08-01T00:19:47;11.43;;;9.17;;
70026;SDS011;57506;50.092;15.804;2022-08-01T00:22:12;11.07;;;9.10;;
70026;SDS011;57506;50.092;15.804;2022-08-01T00:24:38;11.85;;;9.75;;
70026;SDS011;57506;50.092;15.804;2022-08-01T00:27:03;13.33;;;9.40;;
70026;SDS011;57506;50.092;15.804;2022-08-01T00:29:29;11.18;;;9.00;;
70026;SDS011;57506;50.092;15.804;2022-08-01T00:31:54;11.20;;;10.03;;
70026;SDS011;57506;50.092;15.804;2022-08-01T00:34:20;12.17;;;8.83;;
70026;SDS011;57506;50.092;15.804;2022-08-01T00:36:46;12.07;;;9.40;;
70026;SDS011;57506;50.092;15.804;2022-08-01T00:39:11;10.83;;;9.03;;
70026;SDS011;57506;50.092;15.804;2022-08-01T00:41:37;12.27;;;9.15;;
70026;SDS011;57506;50.092;15.804;2022-08-01T00:44:06;11.55;;;8.77;;
70026;SDS011;57506;50.092;15.804;2022-08-01T00:46:32;11.37;;;9.17;;
70026;SDS011;57506;50.092;15.804;2022-08-01T00:48:58;11.60;;;10.10;;
70026;SDS011;57506;50.092;15.804;2022-08-01T00:51:25;11.00;;;9.57;;
70026;SDS011;57506;50.092;15.804;2022-08-01T00:53:51;11.93;;;9.65;;
70026;SDS011;57506;50.092;15.804;2022-08-01T00:56:22;11.35;;;9.70;;
70026;SDS011;57506;50.092;15.804;2022-08-01T00:58:50;13.57;;;9.53;;
70026;SDS011;57506;50.092;15.804;2022-08-01T01:01:16;12.55;;;9.50;;
70026;SDS011;57506;50.092;15.804;2022-08-01T01:03:42;10.70;;;9.60;;
70026;SDS011;57506;50.092;15.804;2022-08-01T01:09:08;14.18;;;9.70;;
70026;SDS011;57506;50.092;15.804;2022-08-01T01:14:41;14.13;;;10.48;;
70026;SDS011;57506;50.092;15.804;2022-08-01T01:17:28;12.83;;;9.73;;
70026;SDS011;57506;50.092;15.804;2022-08-01T01:20:00;11.35;;;9.05;;
70026;SDS011;57506;50.092;15.804;2022-08-01T01:25:22;15.73;;;10.70;;
70026;SDS011;57506;50.092;15.804;2022-08-01T01:30:41;11.67;;;10.03;;
70026;SDS011;57506;50.092;15.804;2022-08-01T01:33:10;12.43;;;9.95;;
70026;SDS011;57506;50.092;15.804;2022-08-01T01:35:39;13.73;;;10.07;;
70026;SDS011;57506;50.092;15.804;2022-08-01T01:38:26;13.07;;;10.02;;
70026;SDS011;57506;50.092;15.804;2022-08-01T01:40:54;13.55;;;9.23;;
70026;SDS011;57506;50.092;15.804;2022-08-01T01:43:22;13.57;;;10.33;;
70026;SDS011;57506;50.092;15.804;2022-08-01T01:45:49;15.27;;;10.30;;
70026;SDS011;57506;50.092;15.804;2022-08-01T01:48:16;12.45;;;9.80;;
70026;SDS011;57506;50.092;15.804;2022-08-01T01:50:45;12.00;;;9.65;;
70026;SDS011;57506;50.092;15.804;2022-08-01T01:53:13;12.57;;;9.77;;
70026;SDS011;57506;50.092;15.804;2022-08-01T01:55:40;13.40;;;9.97;;
70026;SDS011;57506;50.092;15.804;2022-08-01T01:58:08;12.48;;;9.90;;
70026;SDS011;57506;50.092;15.804;2022-08-01T02:00:37;13.80;;;9.52;;
70026;SDS011;57506;50.092;15.804;2022-08-01T02:03:04;14.88;;;10.25;;
70026;SDS011;57506;50.092;15.804;2022-08-01T02:05:31;15.52;;;10.02;;
70026;SDS011;57506;50.092;15.804;2022-08-01T02:07:59;12.70;;;10.90;;
70026;SDS011;57506;50.092;15.804;2022-08-01T02:10:28;11.70;;;10.45;;
70026;SDS011;57506;50.092;15.804;2022-08-01T02:12:54;12.65;;;10.25;;
70026;SDS011;57506;50.092;15.804;2022-08-01T02:15:22;11.68;;;10.15;;
70026;SDS011;57506;50.092;15.804;2022-08-01T02:17:49;14.82;;;11.23;;
70026;SDS011;57506;50.092;15.804;2022-08-01T02:20:16;11.67;;;10.27;;
70026;SDS011;57506;50.092;15.804;2022-08-01T02:22:44;13.02;;;10.23;;
70026;SDS011;57506;50.092;15.804;2022-08-01T02:30:33;14.73;;;11.35;;
70026;SDS011;57506;50.092;15.804;2022-08-01T02:35:58;13.00;;;10.35;;
70026;SDS011;57506;50.092;15.804;2022-08-01T02:38:26;13.63;;;10.10;;
70026;SDS011;57506;50.092;15.804;2022-08-01T02:40:54;12.55;;;10.10;;
70026;SDS011;57506;50.092;15.804;2022-08-01T02:43:25;12.43;;;10.10;;
70026;SDS011;57506;50.092;15.804;2022-08-01T02:45:54;13.30;;;11.90;;
70026;SDS011;57506;50.092;15.804;2022-08-01T02:48:25;13.23;;;10.93;;
70026;SDS011;57506;50.092;15.804;2022-08-01T02:50:52;13.80;;;10.85;;
70026;SDS011;57506;50.092;15.804;2022-08-01T02:53:21;15.32;;;11.73;;
70026;SDS011;57506;50.092;15.804;2022-08-01T02:55:50;13.02;;;10.30;;
70026;SDS011;57506;50.092;15.804;2022-08-01T02:58:18;12.77;;;10.27;;
70026;SDS011;57506;50.092;15.804;2022-08-01T03:00:45;11.75;;;10.10;;
70026;SDS011;57506;50.092;15.804;2022-08-01T03:03:12;12.18;;;10.48;;
70026;SDS011;57506;50.092;15.804;2022-08-01T03:05:39;11.77;;;10.57;;
70026;SDS011;57506;50.092;15.804;2022-08-01T03:08:06;10.88;;;9.63;;
70026;SDS011;57506;50.092;15.804;2022-08-01T03:10:34;13.23;;;9.27;;
70026;SDS011;57506;50.092;15.804;2022-08-01T03:13:02;10.90;;;9.68;;
70026;SDS011;57506;50.092;15.804;2022-08-01T03:15:30;10.55;;;9.43;;
70026;SDS011;57506;50.092;15.804;2022-08-01T03:17:59;11.07;;;9.43;;
70026;SDS011;57506;50.092;15.804;2022-08-01T03:20:25;12.48;;;9.05;;
70026;SDS011;57506;50.092;15.804;2022-08-01T03:22:55;11.53;;;9.47;;
70026;SDS011;57506;50.092;15.804;2022-08-01T03:25:23;13.95;;;9.90;;
70026;SDS011;57506;50.092;15.804;2022-08-01T03:27:51;14.20;;;11.48;;
70026;SDS011;57506;50.092;15.804;2022-08-01T03:30:22;14.48;;;12.18;;
70026;SDS011;57506;50.092;15.804;2022-08-01T03:32:50;13.18;;;11.85;;
70026;SDS011;57506;50.092;15.804;2022-08-01T03:35:15;13.67;;;10.70;;
70026;SDS011;57506;50.092;15.804;2022-08-01T03:37:43;13.10;;;10.43;;
70026;SDS011;57506;50.092;15.804;2022-08-01T03:40:25;12.68;;;10.20;;
70026;SDS011;57506;50.092;15.804;2022-08-01T03:42:59;11.07;;;9.93;;
70026;SDS011;57506;50.092;15.804;2022-08-01T03:45:34;14.43;;;11.10;;
70026;SDS011;57506;50.092;15.804;2022-08-01T03:48:03;11.30;;;10.17;;
70026;SDS011;57506;50.092;15.804;2022-08-01T03:50:34;11.80;;;10.18;;
70026;SDS011;57506;50.092;15.804;2022-08-01T03:53:04;12.57;;;9.90;;
70026;SDS011;57506;50.092;15.804;2022-08-01T03:55:34;11.60;;;9.68;;
70026;SDS011;57506;50.092;15.804;2022-08-01T03:58:03;12.93;;;10.80;;
70026;SDS011;57506;50.092;15.804;2022-08-01T04:00:30;12.77;;;11.47;;
70026;SDS011;57506;50.092;15.804;2022-08-01T04:02:56;15.23;;;11.25;;
70026;SDS011;57506;50.092;15.804;2022-08-01T04:05:22;13.93;;;10.98;;
70026;SDS011;57506;50.092;15.804;2022-08-01T04:07:49;13.30;;;11.25;;
70026;SDS011;57506;50.092;15.804;2022-08-01T04:10:21;12.88;;;10.63;;
70026;SDS011;57506;50.092;15.804;2022-08-01T04:12:49;12.10;;;10.80;;
70026;SDS011;57506;50.092;15.804;2022-08-01T04:15:15;10.60;;;9.50;;
70026;SDS011;57506;50.092;15.804;2022-08-01T04:17:40;12.27;;;10.10;;
70026;SDS011;57506;50.092;15.804;2022-08-01T04:20:06;12.93;;;10.65;;
70026;SDS011;57506;50.092;15.804;2022-08-01T04:22:33;11.95;;;10.68;;
70026;SDS011;57506;50.092;15.804;2022-08-01T04:24:58;13.90;;;10.17;;
70026;SDS011;57506;50.092;15.804;2022-08-01T04:27:32;12.00;;;10.80;;
70026;SDS011;57506;50.092;15.804;2022-08-01T04:30:04;11.90;;;9.93;;
70026;SDS011;57506;50.092;15.804;2022-08-01T04:32:34;11.30;;;8.65;;
70026;SDS011;57506;50.092;15.804;2022-08-01T04:35:03;11.63;;;10.32;;
70026;SDS011;57506;50.092;15.804;2022-08-01T04:37:32;11.57;;;10.30;;
70026;SDS011;57506;50.092;15.804;2022-08-01T04:40:02;14.32;;;10.88;;
70026;SDS011;57506;50.092;15.804;2022-08-01T04:42:30;11.80;;;10.60;;
70026;SDS011;57506;50.092;15.804;2022-08-01T04:44:57;11.77;;;10.20;;
70026;SDS011;57506;50.092;15.804;2022-08-01T04:47:23;12.23;;;10.93;;
70026;SDS011;57506;50.092;15.804;2022-08-01T04:49:51;15.60;;;11.00;;
70026;SDS011;57506;50.092;15.804;2022-08-01T04:52:16;15.85;;;12.13;;
70026;SDS011;57506;50.092;15.804;2022-08-01T04:54:42;14.65;;;12.18;;
70026;SDS011;57506;50.092;15.804;2022-08-01T04:57:08;13.53;;;11.23;;
70026;SDS011;57506;50.092;15.804;2022-08-01T04:59:34;13.60;;;12.05;;
70026;SDS011;57506;50.092;15.804;2022-08-01T05:02:07;14.70;;;11.80;;
70026;SDS011;57506;50.092;15.804;2022-08-01T05:04:34;13.37;;;11.07;;
70026;SDS011;57506;50.092;15.804;2022-08-01T05:06:59;13.98;;;11.50;;
70026;SDS011;57506;50.092;15.804;2022-08-01T05:09:26;14.25;;;11.90;;
70026;SDS011;57506;50.092;15.804;2022-08-01T05:11:51;15.23;;;12.47;;
70026;SDS011;57506;50.092;15.804;2022-08-01T05:14:17;12.27;;;10.98;;
70026;SDS011;57506;50.092;15.804;2022-08-01T05:16:42;14.53;;;11.20;;
70026;SDS011;57506;50.092;15.804;2022-08-01T05:19:08;14.83;;;11.50;;
70026;SDS011;57506;50.092;15.804;2022-08-01T05:21:34;16.20;;;12.52;;
70026;SDS011;57506;50.092;15.804;2022-08-01T05:24:00;13.98;;;10.93;;
70026;SDS011;57506;50.092;15.804;2022-08-01T05:26:25;14.60;;;11.53;;
70026;SDS011;57506;50.092;15.804;2022-08-01T05:28:51;13.88;;;11.23;;
70026;SDS011;57506;50.092;15.804;2022-08-01T05:31:16;13.27;;;10.97;;
70026;SDS011;57506;50.092;15.804;2022-08-01T05:33:42;11.90;;;10.50;;
70026;SDS011;57506;50.092;15.804;2022-08-01T05:36:07;13.23;;;10.47;;
70026;SDS011;57506;50.092;15.804;2022-08-01T05:38:33;13.15;;;10.70;;
70026;SDS011;57506;50.092;15.804;2022-08-01T05:40:59;14.23;;;10.03;;
70026;SDS011;57506;50.092;15.804;2022-08-01T05:43:24;16.40;;;10.05;;
70026;SDS011;57506;50.092;15.804;2022-08-01T05:45:50;14.97;;;10.20;;
70026;SDS011;57506;50.092;15.804;2022-08-01T05:48:15;11.13;;;9.93;;
70026;SDS011;57506;50.092;15.804;2022-08-01T05:50:41;13.57;;;9.97;;
70026;SDS011;57506;50.092;15.804;2022-08-01T05:53:07;12.60;;;9.93;;
70026;SDS011;57506;50.092;15.804;2022-08-01T05:55:32;10.77;;;9.18;;
70026;SDS011;57506;50.092;15.804;2022-08-01T05:57:57;11.60;;;9.20;;
70026;SDS011;57506;50.092;15.804;2022-08-01T06:00:23;9.97;;;8.67;;
70026;SDS011;57506;50.092;15.804;2022-08-01T06:02:48;9.93;;;8.93;;
70026;SDS011;57506;50.092;15.804;2022-08-01T06:05:15;10.80;;;9.17;;
70026;SDS011;57506;50.092;15.804;2022-08-01T06:07:41;11.65;;;8.75;;
70026;SDS011;57506;50.092;15.804;2022-08-01T06:10:08;9.90;;;8.30;;
70026;SDS011;57506;50.092;15.804;2022-08-01T06:12:34;11.80;;;8.18;;
70026;SDS011;57506;50.092;15.804;2022-08-01T06:15:01;13.57;;;8.60;;
70026;SDS011;57506;50.092;15.804;2022-08-01T06:17:45;10.48;;;8.02;;
70026;SDS011;57506;50.092;15.804;2022-08-01T06:20:56;17.40;;;9.70;;
70026;SDS011;57506;50.092;15.804;2022-08-01T06:23:21;9.60;;;7.70;;
70026;SDS011;57506;50.092;15.804;2022-08-01T06:25:47;9.67;;;7.23;;
70026;SDS011;57506;50.092;15.804;2022-08-01T06:28:13;10.13;;;7.15;;
70026;SDS011;57506;50.092;15.804;2022-08-01T06:30:38;11.85;;;7.28;;
70026;SDS011;57506;50.092;15.804;2022-08-01T06:33:04;10.17;;;7.30;;
70026;SDS011;57506;50.092;15.804;2022-08-01T06:35:30;16.13;;;8.13;;
70026;SDS011;57506;50.092;15.804;2022-08-01T06:37:59;10.83;;;7.57;;
70026;SDS011;57506;50.092;15.804;2022-08-01T06:40:24;11.13;;;7.65;;
70026;SDS011;57506;50.092;15.804;2022-08-01T06:42:50;9.20;;;7.32;;
70026;SDS011;57506;50.092;15.804;2022-08-01T06:45:16;11.30;;;7.47;;
70026;SDS011;57506;50.092;15.804;2022-08-01T06:47:43;10.53;;;7.47;;
70026;SDS011;57506;50.092;15.804;2022-08-01T06:50:11;11.25;;;6.25;;
70026;SDS011;57506;50.092;15.804;2022-08-01T06:52:39;10.75;;;7.18;;
70026;SDS011;57506;50.092;15.804;2022-08-01T06:55:04;8.60;;;6.70;;
70026;SDS011;57506;50.092;15.804;2022-08-01T06:57:30;9.80;;;6.37;;
70026;SDS011;57506;50.092;15.804;2022-08-01T06:59:57;9.13;;;6.65;;
70026;SDS011;57506;50.092;15.804;2022-08-01T07:02:25;10.00;;;6.07;;
70026;SDS011;57506;50.092;15.804;2022-08-01T07:04:56;10.27;;;6.22;;
70026;SDS011;57506;50.092;15.804;2022-08-01T07:07:25;7.93;;;6.18;;
70026;SDS011;57506;50.092;15.804;2022-08-01T07:09:52;10.10;;;6.00;;
70026;SDS011;57506;50.092;15.804;2022-08-01T07:12:17;8.70;;;5.35;;
70026;SDS011;57506;50.092;15.804;2022-08-01T07:14:43;13.07;;;5.97;;
70026;SDS011;57506;50.092;15.804;2022-08-01T07:17:08;8.10;;;5.90;;
70026;SDS011;57506;50.092;15.804;2022-08-01T07:19:34;6.57;;;5.10;;
70026;SDS011;57506;50.092;15.804;2022-08-01T07:22:00;6.60;;;4.90;;
70026;SDS011;57506;50.092;15.804;2022-08-01T07:24:25;7.35;;;5.45;;
70026;SDS011;57506;50.092;15.804;2022-08-01T07:26:50;8.60;;;5.93;;
70026;SDS011;57506;50.092;15.804;2022-08-01T07:29:16;8.63;;;6.00;;
70026;SDS011;57506;50.092;15.804;2022-08-01T07:31:41;9.25;;;5.13;;
70026;SDS011;57506;50.092;15.804;2022-08-01T07:34:07;8.37;;;5.27;;
70026;SDS011;57506;50.092;15.804;2022-08-01T07:36:32;12.60;;;5.30;;
70026;SDS011;57506;50.092;15.804;2022-08-01T07:38:58;10.27;;;5.68;;
70026;SDS011;57506;50.092;15.804;2022-08-01T07:41:23;8.57;;;4.77;;
70026;SDS011;57506;50.092;15.804;2022-08-01T07:43:49;7.33;;;4.80;;
70026;SDS011;57506;50.092;15.804;2022-08-01T07:46:15;13.33;;;5.27;;
70026;SDS011;57506;50.092;15.804;2022-08-01T07:48:41;11.40;;;5.27;;
70026;SDS011;57506;50.092;15.804;2022-08-01T07:51:07;9.13;;;5.60;;
70026;SDS011;57506;50.092;15.804;2022-08-01T07:53:35;8.82;;;5.65;;
70026;SDS011;57506;50.092;15.804;2022-08-01T07:56:01;11.55;;;5.43;;
70026;SDS011;57506;50.092;15.804;2022-08-01T07:58:27;8.20;;;5.00;;
70026;SDS011;57506;50.092;15.804;2022-08-01T08:00:53;8.43;;;5.07;;
70026;SDS011;57506;50.092;15.804;2022-08-01T08:03:18;9.33;;;4.80;;
70026;SDS011;57506;50.092;15.804;2022-08-01T08:05:44;9.10;;;5.15;;
70026;SDS011;57506;50.092;15.804;2022-08-01T08:08:09;7.10;;;4.60;;
70026;SDS011;57506;50.092;15.804;2022-08-01T08:10:35;7.80;;;4.83;;
70026;SDS011;57506;50.092;15.804;2022-08-01T08:13:01;9.85;;;5.32;;
70026;SDS011;57506;50.092;15.804;2022-08-01T08:15:27;8.85;;;5.10;;
70026;SDS011;57506;50.092;15.804;2022-08-01T08:17:54;9.13;;;4.80;;
70026;SDS011;57506;50.092;15.804;2022-08-01T08:20:19;9.93;;;4.90;;
70026;SDS011;57506;50.092;15.804;2022-08-01T08:22:49;6.10;;;4.70;;
70026;SDS011;57506;50.092;15.804;2022-08-01T08:25:15;8.52;;;4.15;;
70026;SDS011;57506;50.092;15.804;2022-08-01T08:27:41;7.23;;;4.50;;
70026;SDS011;57506;50.092;15.804;2022-08-01T08:30:06;7.50;;;4.23;;
70026;SDS011;57506;50.092;15.804;2022-08-01T08:32:33;7.55;;;4.60;;
70026;SDS011;57506;50.092;15.804;2022-08-01T08:34:59;8.75;;;4.30;;
70026;SDS011;57506;50.092;15.804;2022-08-01T08:37:25;7.83;;;4.50;;
70026;SDS011;57506;50.092;15.804;2022-08-01T08:39:50;5.80;;;3.95;;
70026;SDS011;57506;50.092;15.804;2022-08-01T08:42:16;6.07;;;4.00;;
70026;SDS011;57506;50.092;15.804;2022-08-01T08:44:41;8.57;;;4.20;;
70026;SDS011;57506;50.092;15.804;2022-08-01T08:47:07;6.93;;;3.80;;
70026;SDS011;57506;50.092;15.804;2022-08-01T08:49:36;7.75;;;4.40;;
70026;SDS011;57506;50.092;15.804;2022-08-01T08:52:03;6.75;;;3.78;;
70026;SDS011;57506;50.092;15.804;2022-08-01T08:54:29;6.45;;;3.70;;
70026;SDS011;57506;50.092;15.804;2022-08-01T08:56:56;6.47;;;4.03;;
70026;SDS011;57506;50.092;15.804;2022-08-01T08:59:23;6.55;;;3.50;;
70026;SDS011;57506;50.092;15.804;2022-08-01T09:01:50;6.57;;;3.47;;
70026;SDS011;57506;50.092;15.804;2022-08-01T09:04:16;5.07;;;3.10;;
70026;SDS011;57506;50.092;15.804;2022-08-01T09:06:42;6.40;;;3.10;;
70026;SDS011;57506;50.092;15.804;2022-08-01T09:09:08;6.18;;;2.67;;
70026;SDS011;57506;50.092;15.804;2022-08-01T09:11:34;5.13;;;2.67;;
70026;SDS011;57506;50.092;15.804;2022-08-01T09:14:02;5.78;;;2.55;;
70026;SDS011;57506;50.092;15.804;2022-08-01T09:16:29;5.43;;;2.90;;
70026;SDS011;57506;50.092;15.804;2022-08-01T09:19:06;5.50;;;2.83;;
70026;SDS011;57506;50.092;15.804;2022-08-01T09:21:33;6.03;;;3.03;;
70026;SDS011;57506;50.092;15.804;2022-08-01T09:23:59;5.77;;;2.70;;
70026;SDS011;57506;50.092;15.804;2022-08-01T09:26:29;6.05;;;3.13;;
70026;SDS011;57506;50.092;15.804;2022-08-01T09:28:58;4.97;;;3.30;;
70026;SDS011;57506;50.092;15.804;2022-08-01T09:31:26;6.95;;;2.67;;
70026;SDS011;57506;50.092;15.804;2022-08-01T09:33:55;4.75;;;2.92;;
70026;SDS011;57506;50.092;15.804;2022-08-01T09:36:26;4.60;;;3.00;;
70026;SDS011;57506;50.092;15.804;2022-08-01T09:39:14;4.97;;;3.17;;
70026;SDS011;57506;50.092;15.804;2022-08-01T09:41:40;5.45;;;3.55;;
70026;SDS011;57506;50.092;15.804;2022-08-01T09:44:06;6.18;;;3.42;;
70026;SDS011;57506;50.092;15.804;2022-08-01T09:46:32;5.67;;;3.60;;
70026;SDS011;57506;50.092;15.804;2022-08-01T09:49:04;6.22;;;3.40;;
70026;SDS011;57506;50.092;15.804;2022-08-01T09:51:32;6.25;;;3.97;;
70026;SDS011;57506;50.092;15.804;2022-08-01T09:54:03;5.40;;;3.53;;
70026;SDS011;57506;50.092;15.804;2022-08-01T09:56:42;6.03;;;3.83;;
70026;SDS011;57506;50.092;15.804;2022-08-01T09:59:08;7.15;;;3.63;;
70026;SDS011;57506;50.092;15.804;2022-08-01T10:04:10;9.02;;;4.22;;
70026;SDS011;57506;50.092;15.804;2022-08-01T10:06:38;10.07;;;4.50;;
70026;SDS011;57506;50.092;15.804;2022-08-01T10:09:09;7.28;;;4.85;;
70026;SDS011;57506;50.092;15.804;2022-08-01T10:11:36;6.35;;;4.10;;
70026;SDS011;57506;50.092;15.804;2022-08-01T10:14:04;6.90;;;4.57;;
70026;SDS011;57506;50.092;15.804;2022-08-01T10:16:30;8.57;;;4.82;;
70026;SDS011;57506;50.092;15.804;2022-08-01T10:19:02;7.27;;;4.90;;
70026;SDS011;57506;50.092;15.804;2022-08-01T10:21:30;7.40;;;4.97;;
70026;SDS011;57506;50.092;15.804;2022-08-01T10:23:57;8.10;;;4.03;;
70026;SDS011;57506;50.092;15.804;2022-08-01T10:26:25;6.55;;;3.40;;
70026;SDS011;57506;50.092;15.804;2022-08-01T10:28:54;6.32;;;3.78;;
70026;SDS011;57506;50.092;15.804;2022-08-01T10:31:20;5.93;;;3.93;;
70026;SDS011;57506;50.092;15.804;2022-08-01T10:33:46;8.10;;;3.70;;
70026;SDS011;57506;50.092;15.804;2022-08-01T10:36:13;6.78;;;3.70;;
70026;SDS011;57506;50.092;15.804;2022-08-01T10:38:39;7.13;;;3.93;;
70026;SDS011;57506;50.092;15.804;2022-08-01T10:41:05;7.47;;;4.70;;
70026;SDS011;57506;50.092;15.804;2022-08-01T10:43:31;7.93;;;4.28;;
70026;SDS011;57506;50.092;15.804;2022-08-01T10:45:56;6.47;;;4.70;;
70026;SDS011;57506;50.092;15.804;2022-08-01T10:48:31;7.88;;;4.20;;
70026;SDS011;57506;50.092;15.804;2022-08-01T10:51:08;6.78;;;4.43;;
70026;SDS011;57506;50.092;15.804;2022-08-01T10:53:34;6.67;;;4.60;;
70026;SDS011;57506;50.092;15.804;2022-08-01T10:56:00;7.75;;;4.63;;
70026;SDS011;57506;50.092;15.804;2022-08-01T10:58:28;9.85;;;4.20;;
70026;SDS011;57506;50.092;15.804;2022-08-01T11:03:43;7.35;;;3.85;;
70026;SDS011;57506;50.092;15.804;2022-08-01T11:06:36;11.30;;;4.90;;
70026;SDS011;57506;50.092;15.804;2022-08-01T11:14:24;5.63;;;3.37;;
70026;SDS011;57506;50.092;15.804;2022-08-01T11:16:50;6.22;;;3.65;;
70026;SDS011;57506;50.092;15.804;2022-08-01T11:19:15;5.63;;;3.50;;
70026;SDS011;57506;50.092;15.804;2022-08-01T11:35:18;5.13;;;3.20;;
70026;SDS011;57506;50.092;15.804;2022-08-01T11:37:49;7.30;;;3.90;;
70026;SDS011;57506;50.092;15.804;2022-08-01T11:40:23;9.25;;;3.70;;
70026;SDS011;57506;50.092;15.804;2022-08-01T11:42:50;6.93;;;3.40;;
70026;SDS011;57506;50.092;15.804;2022-08-01T11:45:51;8.70;;;4.10;;
70026;SDS011;57506;50.092;15.804;2022-08-01T11:48:21;9.40;;;4.20;;
70026;SDS011;57506;50.092;15.804;2022-08-01T11:50:47;9.03;;;3.77;;
70026;SDS011;57506;50.092;15.804;2022-08-01T11:53:15;12.98;;;3.90;;
70026;SDS011;57506;50.092;15.804;2022-08-01T11:55:45;8.30;;;3.92;;
70026;SDS011;57506;50.092;15.804;2022-08-01T11:58:12;7.90;;;3.35;;
70026;SDS011;57506;50.092;15.804;2022-08-01T12:00:37;8.10;;;3.90;;
70026;SDS011;57506;50.092;15.804;2022-08-01T12:03:03;10.87;;;4.87;;
70026;SDS011;57506;50.092;15.804;2022-08-01T12:05:31;6.38;;;4.50;;
70026;SDS011;57506;50.092;15.804;2022-08-01T12:07:59;10.45;;;4.43;;
70026;SDS011;57506;50.092;15.804;2022-08-01T12:10:26;6.47;;;4.40;;
70026;SDS011;57506;50.092;15.804;2022-08-01T12:13:00;7.43;;;4.03;;
70026;SDS011;57506;50.092;15.804;2022-08-01T12:15:32;6.27;;;3.93;;
70026;SDS011;57506;50.092;15.804;2022-08-01T12:18:00;7.13;;;4.10;;
70026;SDS011;57506;50.092;15.804;2022-08-01T12:20:33;6.20;;;4.28;;
70026;SDS011;57506;50.092;15.804;2022-08-01T12:23:02;7.05;;;4.22;;
70026;SDS011;57506;50.092;15.804;2022-08-01T12:25:30;14.63;;;4.50;;
70026;SDS011;57506;50.092;15.804;2022-08-01T12:27:59;9.00;;;3.60;;
70026;SDS011;57506;50.092;15.804;2022-08-01T12:30:26;5.82;;;3.67;;
70026;SDS011;57506;50.092;15.804;2022-08-01T12:32:52;5.13;;;3.95;;
70026;SDS011;57506;50.092;15.804;2022-08-01T12:35:19;10.50;;;3.90;;
70026;SDS011;57506;50.092;15.804;2022-08-01T12:37:51;5.78;;;3.13;;
70026;SDS011;57506;50.092;15.804;2022-08-01T12:40:19;3.77;;;2.23;;
70026;SDS011;57506;50.092;15.804;2022-08-01T12:42:47;5.88;;;2.60;;
70026;SDS011;57506;50.092;15.804;2022-08-01T12:45:15;5.50;;;2.33;;
70026;SDS011;57506;50.092;15.804;2022-08-01T12:47:44;23.85;;;2.70;;
70026;SDS011;57506;50.092;15.804;2022-08-01T12:50:12;4.47;;;2.75;;
70026;SDS011;57506;50.092;15.804;2022-08-01T12:52:43;5.27;;;2.60;;
70026;SDS011;57506;50.092;15.804;2022-08-01T12:55:22;4.28;;;2.80;;
70026;SDS011;57506;50.092;15.804;2022-08-01T12:58:12;5.22;;;2.65;;
70026;SDS011;57506;50.092;15.804;2022-08-01T13:00:44;5.18;;;2.85;;
70026;SDS011;57506;50.092;15.804;2022-08-01T13:06:29;4.85;;;2.10;;
70026;SDS011;57506;50.092;15.804;2022-08-01T13:08:55;3.50;;;2.05;;
70026;SDS011;57506;50.092;15.804;2022-08-01T13:11:33;3.42;;;2.00;;
70026;SDS011;57506;50.092;15.804;2022-08-01T13:13:59;3.67;;;2.20;;
70026;SDS011;57506;50.092;15.804;2022-08-01T13:16:26;7.10;;;2.28;;
70026;SDS011;57506;50.092;15.804;2022-08-01T13:18:52;3.70;;;2.33;;
70026;SDS011;57506;50.092;15.804;2022-08-01T13:21:27;4.20;;;2.30;;
70026;SDS011;57506;50.092;15.804;2022-08-01T13:24:12;4.30;;;2.20;;
70026;SDS011;57506;50.092;15.804;2022-08-01T13:29:13;7.32;;;3.08;;
70026;SDS011;57506;50.092;15.804;2022-08-01T13:31:40;5.78;;;3.60;;
70026;SDS011;57506;50.092;15.804;2022-08-01T13:34:07;6.30;;;4.13;;
70026;SDS011;57506;50.092;15.804;2022-08-01T13:36:32;7.75;;;4.60;;
70026;SDS011;57506;50.092;15.804;2022-08-01T13:38:58;8.02;;;4.55;;
70026;SDS011;57506;50.092;15.804;2022-08-01T13:41:43;9.40;;;4.22;;
70026;SDS011;57506;50.092;15.804;2022-08-01T13:44:09;5.53;;;3.70;;
70026;SDS011;57506;50.092;15.804;2022-08-01T13:46:39;6.53;;;4.43;;
70026;SDS011;57506;50.092;15.804;2022-08-01T13:49:08;7.47;;;3.60;;
70026;SDS011;57506;50.092;15.804;2022-08-01T13:51:35;5.30;;;3.97;;
70026;SDS011;57506;50.092;15.804;2022-08-01T13:54:01;5.53;;;3.15;;
70026;SDS011;57506;50.092;15.804;2022-08-01T13:56:28;6.70;;;3.13;;
70026;SDS011;57506;50.092;15.804;2022-08-01T13:58:54;5.33;;;3.57;;
70026;SDS011;57506;50.092;15.804;2022-08-01T14:01:20;6.88;;;3.35;;
70026;SDS011;57506;50.092;15.804;2022-08-01T14:03:46;4.97;;;2.97;;
70026;SDS011;57506;50.092;15.804;2022-08-01T14:06:12;6.55;;;3.35;;
70026;SDS011;57506;50.092;15.804;2022-08-01T14:08:39;6.27;;;3.60;;
70026;SDS011;57506;50.092;15.804;2022-08-01T14:11:04;4.30;;;3.00;;
70026;SDS011;57506;50.092;15.804;2022-08-01T14:13:30;5.07;;;2.80;;
70026;SDS011;57506;50.092;15.804;2022-08-01T14:15:55;4.87;;;2.90;;
70026;SDS011;57506;50.092;15.804;2022-08-01T14:18:21;4.93;;;2.92;;
70026;SDS011;57506;50.092;15.804;2022-08-01T14:20:46;5.27;;;3.00;;
70026;SDS011;57506;50.092;15.804;2022-08-01T14:23:12;4.20;;;3.00;;
70026;SDS011;57506;50.092;15.804;2022-08-01T14:25:39;3.50;;;1.95;;
70026;SDS011;57506;50.092;15.804;2022-08-01T14:28:06;3.70;;;2.10;;
70026;SDS011;57506;50.092;15.804;2022-08-01T14:30:32;4.83;;;2.20;;
70026;SDS011;57506;50.092;15.804;2022-08-01T14:32:58;3.20;;;1.60;;
70026;SDS011;57506;50.092;15.804;2022-08-01T14:35:24;3.55;;;2.08;;
70026;SDS011;57506;50.092;15.804;2022-08-01T14:37:50;3.20;;;1.70;;
70026;SDS011;57506;50.092;15.804;2022-08-01T14:40:16;3.95;;;1.90;;
70026;SDS011;57506;50.092;15.804;2022-08-01T14:42:41;3.40;;;1.90;;
70026;SDS011;57506;50.092;15.804;2022-08-01T14:45:09;4.35;;;2.47;;
70026;SDS011;57506;50.092;15.804;2022-08-01T14:47:36;4.38;;;2.45;;
70026;SDS011;57506;50.092;15.804;2022-08-01T14:50:04;4.47;;;2.30;;
70026;SDS011;57506;50.092;15.804;2022-08-01T14:52:31;4.32;;;2.95;;
70026;SDS011;57506;50.092;15.804;2022-08-01T14:54:58;3.90;;;2.33;;
70026;SDS011;57506;50.092;15.804;2022-08-01T14:57:23;5.65;;;3.10;;
70026;SDS011;57506;50.092;15.804;2022-08-01T14:59:49;5.22;;;2.90;;
70026;SDS011;57506;50.092;15.804;2022-08-01T15:02:15;5.63;;;2.90;;
70026;SDS011;57506;50.092;15.804;2022-08-01T15:04:42;4.45;;;2.85;;
70026;SDS011;57506;50.092;15.804;2022-08-01T15:07:11;5.40;;;3.00;;
70026;SDS011;57506;50.092;15.804;2022-08-01T15:09:37;4.03;;;2.70;;
70026;SDS011;57506;50.092;15.804;2022-08-01T15:12:03;4.10;;;2.60;;
70026;SDS011;57506;50.092;15.804;2022-08-01T15:14:28;4.28;;;2.58;;
70026;SDS011;57506;50.092;15.804;2022-08-01T15:17:13;3.60;;;2.00;;
70026;SDS011;57506;50.092;15.804;2022-08-01T15:19:43;4.00;;;1.92;;